sensor_id;sensor_type;location;lat;lon;timestamp;pressure;altitude;pressure_sealevel;temperature;humidity
1371;BME280;14306;49.942;11.570;2022-09-09T00:01:04;97233.75;;;13.44;86.59
1371;BME280;14306;49.942;11.570;2022-09-09T00:03:43;97245.34;;;13.33;86.10
1371;BME280;14306;49.942;11.570;2022-09-09T00:06:18;97234.16;;;13.26;86.18
1371;BME280;14306;49.942;11.570;2022-09-09T00:09:01;97233.84;;;13.19;86.61
1371;BME280;14306;49.942;11.570;2022-09-09T00:11:36;97236.94;;;13.09;86.91
1371;BME280;14306;49.942;11.570;2022-09-09T00:14:14;97235.00;;;13.09;86.89
1371;BME280;14306;49.942;11.570;2022-09-09T00:16:49;97238.53;;;13.01;87.14
1371;BME280;14306;49.942;11.570;2022-09-09T00:19:23;97240.91;;;12.94;87.83
1371;BME280;14306;49.942;11.570;2022-09-09T00:22:00;97235.94;;;13.13;87.27
1371;BME280;14306;49.942;11.570;2022-09-09T00:24:38;97239.72;;;13.29;87.11
1371;BME280;14306;49.942;11.570;2022-09-09T00:27:16;97239.66;;;13.09;87.77
1371;BME280;14306;49.942;11.570;2022-09-09T00:29:52;97233.19;;;13.30;87.13
1371;BME280;14306;49.942;11.570;2022-09-09T00:32:21;97234.78;;;13.31;86.95
1371;BME280;14306;49.942;11.570;2022-09-09T00:34:53;97233.19;;;13.30;87.65
1371;BME280;14306;49.942;11.570;2022-09-09T00:37:24;97235.44;;;13.20;87.35
1371;BME280;14306;49.942;11.570;2022-09-09T00:39:55;97234.16;;;13.26;87.32
1371;BME280;14306;49.942;11.570;2022-09-09T00:42:26;97229.97;;;13.28;87.64
1371;BME280;14306;49.942;11.570;2022-09-09T00:45:12;97235.41;;;13.28;87.71
1371;BME280;14306;49.942;11.570;2022-09-09T00:47:46;97236.25;;;13.20;87.93
1371;BME280;14306;49.942;11.570;2022-09-09T00:53:19;97241.03;;;13.23;87.07
1371;BME280;14306;49.942;11.570;2022-09-09T00:55:59;97236.75;;;13.05;87.48
1371;BME280;14306;49.942;11.570;2022-09-09T00:58:31;97232.91;;;13.06;87.72
1371;BME280;14306;49.942;11.570;2022-09-09T01:01:04;97234.03;;;13.05;88.08
1371;BME280;14306;49.942;11.570;2022-09-09T01:03:37;97237.72;;;13.01;87.85
1371;BME280;14306;49.942;11.570;2022-09-09T01:06:13;97240.75;;;13.08;87.51
1371;BME280;14306;49.942;11.570;2022-09-09T01:08:56;97238.19;;;12.94;87.89
1371;BME280;14306;49.942;11.570;2022-09-09T01:11:33;97236.25;;;13.12;88.08
1371;BME280;14306;49.942;11.570;2022-09-09T01:14:13;97236.38;;;13.32;87.02
1371;BME280;14306;49.942;11.570;2022-09-09T01:16:46;97231.25;;;13.31;87.08
1371;BME280;14306;49.942;11.570;2022-09-09T01:19:20;97237.50;;;13.23;87.36
1371;BME280;14306;49.942;11.570;2022-09-09T01:21:58;97230.19;;;13.06;87.94
1371;BME280;14306;49.942;11.570;2022-09-09T01:24:38;97238.53;;;13.10;87.99
1371;BME280;14306;49.942;11.570;2022-09-09T01:27:08;97233.88;;;13.10;88.01
1371;BME280;14306;49.942;11.570;2022-09-09T01:29:37;97232.13;;;13.14;88.21
1371;BME280;14306;49.942;11.570;2022-09-09T01:32:37;97228.59;;;13.14;88.32
1371;BME280;14306;49.942;11.570;2022-09-09T01:35:08;97226.81;;;13.18;88.56
1371;BME280;14306;49.942;11.570;2022-09-09T01:37:37;97232.38;;;13.30;88.69
1371;BME280;14306;49.942;11.570;2022-09-09T01:40:06;97228.19;;;13.41;87.98
1371;BME280;14306;49.942;11.570;2022-09-09T01:42:35;97222.88;;;13.44;88.48
1371;BME280;14306;49.942;11.570;2022-09-09T01:45:04;97224.81;;;13.44;88.18
1371;BME280;14306;49.942;11.570;2022-09-09T01:47:32;97230.28;;;13.35;87.86
1371;BME280;14306;49.942;11.570;2022-09-09T01:50:01;97230.59;;;13.34;88.09
1371;BME280;14306;49.942;11.570;2022-09-09T01:52:30;97230.47;;;13.22;88.70
1371;BME280;14306;49.942;11.570;2022-09-09T01:55:00;97229.69;;;13.21;88.68
1371;BME280;14306;49.942;11.570;2022-09-09T01:57:36;97226.31;;;13.24;88.24
1371;BME280;14306;49.942;11.570;2022-09-09T02:00:08;97229.53;;;13.18;88.63
1371;BME280;14306;49.942;11.570;2022-09-09T02:02:44;97226.50;;;13.11;88.35
1371;BME280;14306;49.942;11.570;2022-09-09T02:05:25;97230.00;;;13.20;88.70
1371;BME280;14306;49.942;11.570;2022-09-09T02:08:00;97225.03;;;13.22;88.53
1371;BME280;14306;49.942;11.570;2022-09-09T02:10:35;97228.72;;;13.26;88.77
1371;BME280;14306;49.942;11.570;2022-09-09T02:13:10;97225.22;;;13.17;88.99
1371;BME280;14306;49.942;11.570;2022-09-09T02:15:43;97225.66;;;13.27;88.58
1371;BME280;14306;49.942;11.570;2022-09-09T02:18:15;97217.31;;;13.32;88.78
1371;BME280;14306;49.942;11.570;2022-09-09T02:20:45;97223.56;;;13.33;88.96
1371;BME280;14306;49.942;11.570;2022-09-09T02:23:14;97217.28;;;13.41;88.58
1371;BME280;14306;49.942;11.570;2022-09-09T02:25:43;97215.50;;;13.53;88.05
1371;BME280;14306;49.942;11.570;2022-09-09T02:28:14;97218.22;;;13.53;88.02
1371;BME280;14306;49.942;11.570;2022-09-09T02:30:45;97214.34;;;13.54;88.58
1371;BME280;14306;49.942;11.570;2022-09-09T02:33:14;97213.59;;;13.45;88.35
1371;BME280;14306;49.942;11.570;2022-09-09T02:35:44;97220.75;;;13.50;88.34
1371;BME280;14306;49.942;11.570;2022-09-09T02:38:15;97209.75;;;13.46;88.39
1371;BME280;14306;49.942;11.570;2022-09-09T02:40:43;97207.84;;;13.47;88.57
1371;BME280;14306;49.942;11.570;2022-09-09T02:43:15;97212.94;;;13.48;88.56
1371;BME280;14306;49.942;11.570;2022-09-09T02:45:49;97197.06;;;13.59;88.51
1371;BME280;14306;49.942;11.570;2022-09-09T02:48:23;97196.44;;;13.53;88.71
1371;BME280;14306;49.942;11.570;2022-09-09T02:51:00;97207.44;;;13.57;88.42
1371;BME280;14306;49.942;11.570;2022-09-09T02:53:36;97201.69;;;13.58;88.53
1371;BME280;14306;49.942;11.570;2022-09-09T02:56:10;97201.06;;;13.53;88.15
1371;BME280;14306;49.942;11.570;2022-09-09T02:58:42;97207.78;;;13.55;87.99
1371;BME280;14306;49.942;11.570;2022-09-09T03:01:10;97207.53;;;13.40;88.93
1371;BME280;14306;49.942;11.570;2022-09-09T03:03:38;97213.94;;;13.44;89.07
1371;BME280;14306;49.942;11.570;2022-09-09T03:06:07;97214.56;;;13.41;89.19
1371;BME280;14306;49.942;11.570;2022-09-09T03:08:36;97211.84;;;13.41;88.81
1371;BME280;14306;49.942;11.570;2022-09-09T03:11:04;97221.78;;;13.37;89.13
1371;BME280;14306;49.942;11.570;2022-09-09T03:13:32;97221.97;;;13.32;89.06
1371;BME280;14306;49.942;11.570;2022-09-09T03:16:02;97224.97;;;13.39;89.39
1371;BME280;14306;49.942;11.570;2022-09-09T03:18:31;97219.78;;;13.54;89.75
1371;BME280;14306;49.942;11.570;2022-09-09T03:21:01;97223.72;;;13.74;88.90
1371;BME280;14306;49.942;11.570;2022-09-09T03:23:29;97214.81;;;13.85;89.14
1371;BME280;14306;49.942;11.570;2022-09-09T03:25:57;97210.28;;;14.18;88.26
1371;BME280;14306;49.942;11.570;2022-09-09T03:28:25;97213.66;;;14.24;87.30
1371;BME280;14306;49.942;11.570;2022-09-09T03:30:59;97207.78;;;14.34;87.34
1371;BME280;14306;49.942;11.570;2022-09-09T03:33:28;97204.47;;;14.28;87.50
1371;BME280;14306;49.942;11.570;2022-09-09T03:35:58;97204.41;;;14.37;87.48
1371;BME280;14306;49.942;11.570;2022-09-09T03:38:25;97208.66;;;14.46;86.98
1371;BME280;14306;49.942;11.570;2022-09-09T03:40:56;97207.72;;;14.42;87.38
1371;BME280;14306;49.942;11.570;2022-09-09T03:43:25;97201.06;;;14.52;86.66
1371;BME280;14306;49.942;11.570;2022-09-09T03:45:54;97200.72;;;14.53;86.72
1371;BME280;14306;49.942;11.570;2022-09-09T03:48:24;97201.34;;;14.59;86.40
1371;BME280;14306;49.942;11.570;2022-09-09T03:50:54;97196.19;;;14.78;85.61
1371;BME280;14306;49.942;11.570;2022-09-09T03:53:24;97194.81;;;14.84;85.42
1371;BME280;14306;49.942;11.570;2022-09-09T03:55:54;97191.31;;;14.83;85.18
1371;BME280;14306;49.942;11.570;2022-09-09T03:58:23;97184.94;;;14.79;85.41
1371;BME280;14306;49.942;11.570;2022-09-09T04:00:54;97190.47;;;14.71;85.69
1371;BME280;14306;49.942;11.570;2022-09-09T04:03:22;97183.50;;;14.61;85.98
1371;BME280;14306;49.942;11.570;2022-09-09T04:05:56;97188.38;;;14.56;86.15
1371;BME280;14306;49.942;11.570;2022-09-09T04:08:24;97181.78;;;14.57;86.40
1371;BME280;14306;49.942;11.570;2022-09-09T04:10:53;97194.75;;;14.60;86.54
1371;BME280;14306;49.942;11.570;2022-09-09T04:13:25;97187.75;;;14.71;86.47
1371;BME280;14306;49.942;11.570;2022-09-09T04:15:55;97184.31;;;14.62;87.01
1371;BME280;14306;49.942;11.570;2022-09-09T04:18:24;97183.72;;;14.56;87.39
1371;BME280;14306;49.942;11.570;2022-09-09T04:20:53;97187.47;;;14.64;87.27
1371;BME280;14306;49.942;11.570;2022-09-09T04:23:23;97186.78;;;14.55;88.07
1371;BME280;14306;49.942;11.570;2022-09-09T04:25:53;97184.44;;;14.45;88.31
1371;BME280;14306;49.942;11.570;2022-09-09T04:28:23;97190.81;;;14.49;88.49
1371;BME280;14306;49.942;11.570;2022-09-09T04:30:51;97198.81;;;14.54;88.83
1371;BME280;14306;49.942;11.570;2022-09-09T04:33:19;97188.59;;;14.51;88.79
1371;BME280;14306;49.942;11.570;2022-09-09T04:35:49;97190.81;;;14.49;88.64
1371;BME280;14306;49.942;11.570;2022-09-09T04:38:19;97204.28;;;14.54;88.76
1371;BME280;14306;49.942;11.570;2022-09-09T04:40:51;97196.94;;;14.46;89.16
1371;BME280;14306;49.942;11.570;2022-09-09T04:43:20;97206.63;;;14.55;89.04
1371;BME280;14306;49.942;11.570;2022-09-09T04:45:50;97203.91;;;14.55;89.19
1371;BME280;14306;49.942;11.570;2022-09-09T04:48:19;97205.97;;;14.58;88.95
1371;BME280;14306;49.942;11.570;2022-09-09T04:50:55;97206.56;;;14.64;89.13
1371;BME280;14306;49.942;11.570;2022-09-09T04:53:23;97202.22;;;14.83;88.52
1371;BME280;14306;49.942;11.570;2022-09-09T04:56:01;97197.31;;;14.77;88.73
1371;BME280;14306;49.942;11.570;2022-09-09T04:58:29;97206.75;;;14.79;88.67
1371;BME280;14306;49.942;11.570;2022-09-09T05:01:03;97206.31;;;14.89;88.95
1371;BME280;14306;49.942;11.570;2022-09-09T05:03:31;97215.75;;;14.92;88.34
1371;BME280;14306;49.942;11.570;2022-09-09T05:06:05;97212.34;;;14.95;88.51
1371;BME280;14306;49.942;11.570;2022-09-09T05:08:35;97204.19;;;14.95;88.72
1371;BME280;14306;49.942;11.570;2022-09-09T05:11:13;97209.97;;;14.93;88.66
1371;BME280;14306;49.942;11.570;2022-09-09T05:13:42;97207.47;;;15.00;88.84
1371;BME280;14306;49.942;11.570;2022-09-09T05:16:11;97207.97;;;15.02;88.58
1371;BME280;14306;49.942;11.570;2022-09-09T05:18:39;97210.72;;;15.14;88.47
1371;BME280;14306;49.942;11.570;2022-09-09T05:21:08;97209.13;;;15.13;88.52
1371;BME280;14306;49.942;11.570;2022-09-09T05:23:36;97206.19;;;15.30;87.70
1371;BME280;14306;49.942;11.570;2022-09-09T05:26:08;97210.00;;;15.38;87.13
1371;BME280;14306;49.942;11.570;2022-09-09T05:28:42;97211.94;;;15.49;86.79
1371;BME280;14306;49.942;11.570;2022-09-09T05:31:12;97206.47;;;15.49;86.70
1371;BME280;14306;49.942;11.570;2022-09-09T05:33:41;97212.59;;;15.58;86.34
1371;BME280;14306;49.942;11.570;2022-09-09T05:36:14;97207.47;;;15.57;86.67
1371;BME280;14306;49.942;11.570;2022-09-09T05:38:43;97211.59;;;15.63;85.96
1371;BME280;14306;49.942;11.570;2022-09-09T05:41:14;97217.97;;;15.67;85.77
1371;BME280;14306;49.942;11.570;2022-09-09T05:43:44;97219.78;;;15.75;85.45
1371;BME280;14306;49.942;11.570;2022-09-09T05:46:14;97222.06;;;15.73;85.36
1371;BME280;14306;49.942;11.570;2022-09-09T05:48:44;97221.72;;;15.87;85.03
1371;BME280;14306;49.942;11.570;2022-09-09T05:51:15;97229.13;;;15.86;84.62
1371;BME280;14306;49.942;11.570;2022-09-09T05:53:44;97224.66;;;15.82;84.75
1371;BME280;14306;49.942;11.570;2022-09-09T05:56:16;97215.56;;;15.90;84.19
1371;BME280;14306;49.942;11.570;2022-09-09T05:58:46;97234.91;;;15.97;84.10
1371;BME280;14306;49.942;11.570;2022-09-09T06:01:18;97232.16;;;16.09;83.56
1371;BME280;14306;49.942;11.570;2022-09-09T06:03:47;97238.06;;;16.35;82.59
1371;BME280;14306;49.942;11.570;2022-09-09T06:06:17;97233.84;;;16.49;81.65
1371;BME280;14306;49.942;11.570;2022-09-09T06:08:48;97232.31;;;16.64;81.06
1371;BME280;14306;49.942;11.570;2022-09-09T06:11:20;97229.78;;;16.71;80.69
1371;BME280;14306;49.942;11.570;2022-09-09T06:13:48;97229.59;;;16.64;80.82
1371;BME280;14306;49.942;11.570;2022-09-09T06:16:19;97230.53;;;16.83;79.76
1371;BME280;14306;49.942;11.570;2022-09-09T06:18:47;97224.91;;;16.92;79.07
1371;BME280;14306;49.942;11.570;2022-09-09T06:21:17;97228.69;;;16.60;79.90
1371;BME280;14306;49.942;11.570;2022-09-09T06:23:45;97226.94;;;16.67;79.48
1371;BME280;14306;49.942;11.570;2022-09-09T06:26:17;97224.84;;;17.04;79.30
1371;BME280;14306;49.942;11.570;2022-09-09T06:28:48;97221.03;;;17.98;77.86
1371;BME280;14306;49.942;11.570;2022-09-09T06:31:18;97218.78;;;19.30;72.39
1371;BME280;14306;49.942;11.570;2022-09-09T06:33:53;97220.97;;;20.63;66.40
1371;BME280;14306;49.942;11.570;2022-09-09T06:36:23;97223.94;;;20.51;64.10
1371;BME280;14306;49.942;11.570;2022-09-09T06:38:51;97230.50;;;20.43;65.80
1371;BME280;14306;49.942;11.570;2022-09-09T06:41:21;97223.44;;;21.74;61.25
1371;BME280;14306;49.942;11.570;2022-09-09T06:43:50;97221.56;;;23.07;55.68
1371;BME280;14306;49.942;11.570;2022-09-09T06:46:19;97229.41;;;25.19;50.66
1371;BME280;14306;49.942;11.570;2022-09-09T06:48:48;97228.22;;;26.40;46.41
1371;BME280;14306;49.942;11.570;2022-09-09T06:51:19;97233.63;;;26.13;46.72
1371;BME280;14306;49.942;11.570;2022-09-09T06:53:50;97239.59;;;25.50;46.75
1371;BME280;14306;49.942;11.570;2022-09-09T06:56:21;97247.00;;;24.56;49.59
1371;BME280;14306;49.942;11.570;2022-09-09T06:58:52;97244.63;;;23.78;50.58
1371;BME280;14306;49.942;11.570;2022-09-09T07:01:22;97248.38;;;22.38;54.64
1371;BME280;14306;49.942;11.570;2022-09-09T07:03:52;97254.25;;;20.54;63.31
1371;BME280;14306;49.942;11.570;2022-09-09T07:06:22;97254.09;;;19.50;67.66
1371;BME280;14306;49.942;11.570;2022-09-09T07:08:51;97245.59;;;19.17;70.78
1371;BME280;14306;49.942;11.570;2022-09-09T07:11:24;97248.91;;;18.88;72.21
1371;BME280;14306;49.942;11.570;2022-09-09T07:13:56;97241.69;;;18.61;71.13
1371;BME280;14306;49.942;11.570;2022-09-09T07:16:25;97241.91;;;18.52;72.00
1371;BME280;14306;49.942;11.570;2022-09-09T07:18:54;97244.44;;;18.99;71.14
1371;BME280;14306;49.942;11.570;2022-09-09T07:21:25;97252.63;;;19.14;69.11
1371;BME280;14306;49.942;11.570;2022-09-09T07:23:54;97252.00;;;19.44;68.01
1371;BME280;14306;49.942;11.570;2022-09-09T07:26:25;97255.44;;;19.82;66.47
1371;BME280;14306;49.942;11.570;2022-09-09T07:28:55;97253.69;;;19.93;65.66
1371;BME280;14306;49.942;11.570;2022-09-09T07:31:26;97254.47;;;20.42;64.91
1371;BME280;14306;49.942;11.570;2022-09-09T07:33:54;97253.56;;;20.61;64.46
1371;BME280;14306;49.942;11.570;2022-09-09T07:36:23;97254.53;;;21.71;60.87
1371;BME280;14306;49.942;11.570;2022-09-09T07:38:59;97263.25;;;21.80;59.05
1371;BME280;14306;49.942;11.570;2022-09-09T07:41:32;97272.69;;;20.80;61.69
1371;BME280;14306;49.942;11.570;2022-09-09T07:44:06;97276.34;;;20.32;63.54
1371;BME280;14306;49.942;11.570;2022-09-09T07:46:35;97275.19;;;20.10;64.04
1371;BME280;14306;49.942;11.570;2022-09-09T07:49:04;97279.03;;;19.83;65.72
1371;BME280;14306;49.942;11.570;2022-09-09T07:51:33;97282.19;;;19.63;66.13
1371;BME280;14306;49.942;11.570;2022-09-09T07:54:04;97275.72;;;19.74;66.47
1371;BME280;14306;49.942;11.570;2022-09-09T07:56:33;97278.31;;;20.09;65.22
1371;BME280;14306;49.942;11.570;2022-09-09T07:59:02;97279.19;;;20.13;66.02
1371;BME280;14306;49.942;11.570;2022-09-09T08:01:35;97271.69;;;20.36;65.68
1371;BME280;14306;49.942;11.570;2022-09-09T08:04:07;97273.69;;;21.24;63.29
1371;BME280;14306;49.942;11.570;2022-09-09T08:06:40;97261.97;;;22.10;60.57
1371;BME280;14306;49.942;11.570;2022-09-09T08:09:09;97268.81;;;24.23;53.77
1371;BME280;14306;49.942;11.570;2022-09-09T08:11:38;97261.72;;;25.64;50.34
1371;BME280;14306;49.942;11.570;2022-09-09T08:14:07;97258.59;;;28.44;43.47
1371;BME280;14306;49.942;11.570;2022-09-09T08:16:39;97273.97;;;29.18;40.42
1371;BME280;14306;49.942;11.570;2022-09-09T08:19:08;97276.78;;;27.73;43.25
1371;BME280;14306;49.942;11.570;2022-09-09T08:21:38;97266.53;;;28.46;42.22
1371;BME280;14306;49.942;11.570;2022-09-09T08:24:08;97268.66;;;29.98;39.14
1371;BME280;14306;49.942;11.570;2022-09-09T08:26:38;97261.66;;;31.72;36.17
1371;BME280;14306;49.942;11.570;2022-09-09T08:29:07;97258.34;;;32.52;33.83
1371;BME280;14306;49.942;11.570;2022-09-09T08:31:39;97260.22;;;33.02;33.00
1371;BME280;14306;49.942;11.570;2022-09-09T08:34:08;97265.00;;;33.78;31.54
1371;BME280;14306;49.942;11.570;2022-09-09T08:36:39;97262.09;;;34.12;31.00
1371;BME280;14306;49.942;11.570;2022-09-09T08:39:09;97258.44;;;37.40;27.38
1371;BME280;14306;49.942;11.570;2022-09-09T08:45:11;97276.94;;;37.27;25.68
1371;BME280;14306;49.942;11.570;2022-09-09T08:47:54;97274.53;;;37.11;26.03
1371;BME280;14306;49.942;11.570;2022-09-09T08:50:26;97276.06;;;38.17;24.29
1371;BME280;14306;49.942;11.570;2022-09-09T08:52:59;97281.28;;;39.28;21.93
1371;BME280;14306;49.942;11.570;2022-09-09T08:55:37;97271.19;;;36.74;24.70
1371;BME280;14306;49.942;11.570;2022-09-09T08:58:11;97275.44;;;33.69;28.67
1371;BME280;14306;49.942;11.570;2022-09-09T09:00:48;97268.69;;;32.42;29.47
1371;BME280;14306;49.942;11.570;2022-09-09T09:03:30;97274.56;;;30.84;31.88
1371;BME280;14306;49.942;11.570;2022-09-09T09:06:06;97270.97;;;30.67;32.13
1371;BME280;14306;49.942;11.570;2022-09-09T09:08:41;97274.16;;;30.21;33.00
1371;BME280;14306;49.942;11.570;2022-09-09T09:11:12;97277.50;;;29.61;33.83
1371;BME280;14306;49.942;11.570;2022-09-09T09:13:43;97277.72;;;28.88;34.67
1371;BME280;14306;49.942;11.570;2022-09-09T09:16:19;97269.13;;;28.79;35.53
1371;BME280;14306;49.942;11.570;2022-09-09T09:18:51;97269.69;;;28.21;37.03
1371;BME280;14306;49.942;11.570;2022-09-09T09:21:24;97266.63;;;28.62;36.85
1371;BME280;14306;49.942;11.570;2022-09-09T09:23:58;97270.09;;;30.06;34.66
1371;BME280;14306;49.942;11.570;2022-09-09T09:26:30;97262.06;;;32.24;31.24
1371;BME280;14306;49.942;11.570;2022-09-09T09:29:01;97266.53;;;33.92;28.54
1371;BME280;14306;49.942;11.570;2022-09-09T09:31:36;97270.09;;;34.23;28.48
1371;BME280;14306;49.942;11.570;2022-09-09T09:34:08;97259.53;;;35.29;26.35
1371;BME280;14306;49.942;11.570;2022-09-09T09:36:40;97260.66;;;37.22;24.15
1371;BME280;14306;49.942;11.570;2022-09-09T09:39:09;97260.19;;;37.23;23.41
1371;BME280;14306;49.942;11.570;2022-09-09T09:41:57;97259.53;;;38.99;21.85
1371;BME280;14306;49.942;11.570;2022-09-09T09:44:32;97259.28;;;38.83;21.99
1371;BME280;14306;49.942;11.570;2022-09-09T09:47:08;97265.16;;;38.44;22.25
1371;BME280;14306;49.942;11.570;2022-09-09T09:49:39;97262.63;;;38.32;22.79
1371;BME280;14306;49.942;11.570;2022-09-09T09:52:14;97255.38;;;34.67;27.10
1371;BME280;14306;49.942;11.570;2022-09-09T09:54:44;97254.34;;;34.92;25.97
1371;BME280;14306;49.942;11.570;2022-09-09T09:57:14;97254.03;;;32.73;28.86
1371;BME280;14306;49.942;11.570;2022-09-09T09:59:44;97254.38;;;33.30;28.48
1371;BME280;14306;49.942;11.570;2022-09-09T10:02:16;97245.31;;;34.39;26.46
1371;BME280;14306;49.942;11.570;2022-09-09T10:04:46;97248.00;;;36.61;24.21
1371;BME280;14306;49.942;11.570;2022-09-09T10:07:20;97241.06;;;36.71;24.36
1371;BME280;14306;49.942;11.570;2022-09-09T10:09:53;97242.72;;;32.98;27.51
1371;BME280;14306;49.942;11.570;2022-09-09T10:12:32;97248.19;;;33.57;27.58
1371;BME280;14306;49.942;11.570;2022-09-09T10:15:15;97236.50;;;32.81;28.14
1371;BME280;14306;49.942;11.570;2022-09-09T10:17:55;97233.78;;;32.31;28.92
1371;BME280;14306;49.942;11.570;2022-09-09T10:20:37;97236.50;;;31.84;29.49
1371;BME280;14306;49.942;11.570;2022-09-09T10:23:21;97244.78;;;31.34;30.18
1371;BME280;14306;49.942;11.570;2022-09-09T10:26:05;97237.84;;;30.82;30.94
1371;BME280;14306;49.942;11.570;2022-09-09T10:28:55;97225.75;;;30.85;31.07
1371;BME280;14306;49.942;11.570;2022-09-09T10:31:33;97225.19;;;30.77;31.82
1371;BME280;14306;49.942;11.570;2022-09-09T10:34:12;97227.56;;;31.20;30.10
1371;BME280;14306;49.942;11.570;2022-09-09T10:36:47;97218.97;;;33.54;27.75
1371;BME280;14306;49.942;11.570;2022-09-09T10:39:34;97217.72;;;34.25;26.00
1371;BME280;14306;49.942;11.570;2022-09-09T10:42:11;97212.22;;;31.65;29.91
1371;BME280;14306;49.942;11.570;2022-09-09T10:44:53;97220.72;;;30.00;32.26
1371;BME280;14306;49.942;11.570;2022-09-09T10:47:55;97218.28;;;29.50;32.94
1371;BME280;14306;49.942;11.570;2022-09-09T10:50:43;97211.50;;;29.32;33.17
1371;BME280;14306;49.942;11.570;2022-09-09T10:53:48;97207.25;;;29.43;33.37
1371;BME280;14306;49.942;11.570;2022-09-09T10:56:21;97201.00;;;30.83;31.56
1371;BME280;14306;49.942;11.570;2022-09-09T10:58:56;97197.56;;;31.86;29.98
1371;BME280;14306;49.942;11.570;2022-09-09T11:01:29;97196.09;;;32.19;29.24
1371;BME280;14306;49.942;11.570;2022-09-09T11:04:03;97195.94;;;31.60;29.62
1371;BME280;14306;49.942;11.570;2022-09-09T11:06:37;97197.22;;;30.61;30.71
1371;BME280;14306;49.942;11.570;2022-09-09T11:09:15;97203.53;;;30.01;31.43
1371;BME280;14306;49.942;11.570;2022-09-09T11:11:49;97206.47;;;29.62;32.36
1371;BME280;14306;49.942;11.570;2022-09-09T11:14:25;97209.97;;;28.68;33.05
1371;BME280;14306;49.942;11.570;2022-09-09T11:17:06;97208.34;;;28.25;39.96
1371;BME280;14306;49.942;11.570;2022-09-09T11:19:39;97220.47;;;26.21;53.36
1371;BME280;14306;49.942;11.570;2022-09-09T11:22:21;97222.53;;;23.81;61.59
1371;BME280;14306;49.942;11.570;2022-09-09T11:24:57;97230.13;;;22.81;65.92
1371;BME280;14306;49.942;11.570;2022-09-09T11:27:31;97219.50;;;22.25;68.64
1371;BME280;14306;49.942;11.570;2022-09-09T11:30:20;97221.59;;;21.92;71.78
1371;BME280;14306;49.942;11.570;2022-09-09T11:33:42;97213.63;;;21.80;69.94
1371;BME280;14306;49.942;11.570;2022-09-09T11:36:42;97203.84;;;21.89;72.68
1371;BME280;14306;49.942;11.570;2022-09-09T11:39:28;97199.63;;;22.60;76.70
1371;BME280;14306;49.942;11.570;2022-09-09T11:42:22;97197.78;;;22.85;76.29
1371;BME280;14306;49.942;11.570;2022-09-09T11:44:51;97192.09;;;22.50;72.30
1371;BME280;14306;49.942;11.570;2022-09-09T11:47:24;97195.16;;;22.41;72.51
1371;BME280;14306;49.942;11.570;2022-09-09T11:50:10;97191.34;;;22.57;74.12
1371;BME280;14306;49.942;11.570;2022-09-09T11:53:05;97190.41;;;22.38;71.94
1371;BME280;14306;49.942;11.570;2022-09-09T11:55:34;97184.63;;;22.61;69.33
1371;BME280;14306;49.942;11.570;2022-09-09T11:58:06;97184.31;;;22.73;65.00
1371;BME280;14306;49.942;11.570;2022-09-09T12:00:44;97178.47;;;22.99;59.27
1371;BME280;14306;49.942;11.570;2022-09-09T12:03:34;97183.72;;;23.25;62.36
1371;BME280;14306;49.942;11.570;2022-09-09T12:06:15;97188.13;;;23.44;63.30
1371;BME280;14306;49.942;11.570;2022-09-09T12:08:47;97185.59;;;23.00;62.49
1371;BME280;14306;49.942;11.570;2022-09-09T12:11:25;97193.72;;;22.58;65.82
1371;BME280;14306;49.942;11.570;2022-09-09T12:13:58;97213.81;;;21.21;71.20
1371;BME280;14306;49.942;11.570;2022-09-09T12:16:30;97215.41;;;20.07;75.87
1371;BME280;14306;49.942;11.570;2022-09-09T12:19:13;97204.03;;;19.83;77.55
1371;BME280;14306;49.942;11.570;2022-09-09T12:21:48;97195.72;;;19.57;80.07
1371;BME280;14306;49.942;11.570;2022-09-09T12:24:25;97186.44;;;19.65;78.26
1371;BME280;14306;49.942;11.570;2022-09-09T12:26:59;97175.88;;;19.93;81.41
1371;BME280;14306;49.942;11.570;2022-09-09T12:29:41;97176.34;;;20.21;81.22
1371;BME280;14306;49.942;11.570;2022-09-09T12:32:11;97157.22;;;20.61;78.31
1371;BME280;14306;49.942;11.570;2022-09-09T12:34:44;97163.97;;;20.37;79.05
1371;BME280;14306;49.942;11.570;2022-09-09T12:37:24;97152.97;;;20.37;78.23
1371;BME280;14306;49.942;11.570;2022-09-09T12:39:56;97159.28;;;20.38;76.88
1371;BME280;14306;49.942;11.570;2022-09-09T12:42:26;97162.63;;;19.98;75.69
1371;BME280;14306;49.942;11.570;2022-09-09T12:44:57;97157.81;;;19.92;75.54
1371;BME280;14306;49.942;11.570;2022-09-09T12:47:36;97156.16;;;19.61;75.69
1371;BME280;14306;49.942;11.570;2022-09-09T12:50:16;97149.66;;;19.73;75.34
1371;BME280;14306;49.942;11.570;2022-09-09T12:52:44;97147.91;;;20.10;75.67
1371;BME280;14306;49.942;11.570;2022-09-09T12:55:18;97153.88;;;20.45;74.43
1371;BME280;14306;49.942;11.570;2022-09-09T12:57:48;97135.84;;;20.84;73.84
1371;BME280;14306;49.942;11.570;2022-09-09T13:00:22;97133.63;;;21.33;74.03
1371;BME280;14306;49.942;11.570;2022-09-09T13:02:52;97121.72;;;21.69;70.99
1371;BME280;14306;49.942;11.570;2022-09-09T13:05:23;97123.59;;;22.05;72.04
1371;BME280;14306;49.942;11.570;2022-09-09T13:07:51;97131.66;;;22.41;71.07
1371;BME280;14306;49.942;11.570;2022-09-09T13:10:24;97127.88;;;22.74;68.02
1371;BME280;14306;49.942;11.570;2022-09-09T13:13:15;97124.34;;;22.84;69.31
1371;BME280;14306;49.942;11.570;2022-09-09T13:15:51;97122.03;;;23.00;69.05
1371;BME280;14306;49.942;11.570;2022-09-09T13:18:22;97124.00;;;23.00;73.14
1371;BME280;14306;49.942;11.570;2022-09-09T13:20:51;97129.13;;;22.94;72.13
1371;BME280;14306;49.942;11.570;2022-09-09T13:23:20;97114.06;;;22.78;70.34
1371;BME280;14306;49.942;11.570;2022-09-09T13:25:54;97122.97;;;22.36;67.99
1371;BME280;14306;49.942;11.570;2022-09-09T13:28:23;97126.91;;;22.35;69.10
1371;BME280;14306;49.942;11.570;2022-09-09T13:30:58;97121.53;;;22.67;64.64
1371;BME280;14306;49.942;11.570;2022-09-09T13:33:31;97132.63;;;22.84;63.45
1371;BME280;14306;49.942;11.570;2022-09-09T13:36:03;97140.53;;;22.82;59.00
1371;BME280;14306;49.942;11.570;2022-09-09T13:38:35;97132.56;;;22.63;56.72